Time;durP1;ratioP1;P1;durP2;ratioP2;P2;SDS_P1;SDS_P2;PMS_P1;PMS_P2;Temp;Humidity;BMP_temperature;BMP_pressure;BME280_temperature;BME280_humidity;BME280_pressure;Samples;Min_cycle;Max_cycle;Signal;HPM_P1;HPM_P2
2022/01/19 00:00:39;;;;;;;44.50;20.67;;;6.10;99.90;;;;;;4813813;29;20043;-80
2022/01/19 00:03:10;;;;;;;43.13;20.73;;;6.10;99.90;;;;;;4798424;29;20034;-81
2022/01/19 00:05:38;;;;;;;40.63;18.63;;;6.10;99.90;;;;;;4814785;29;20475;-80
2022/01/19 00:08:06;;;;;;;39.90;19.95;;;6.10;99.90;;;;;;4827597;29;20053;-83
2022/01/19 00:10:34;;;;;;;39.25;18.33;;;6.10;99.90;;;;;;4850642;29;20038;-86
2022/01/19 00:13:09;;;;;;;41.53;18.63;;;6.10;99.90;;;;;;4845724;29;20466;-85
2022/01/19 00:15:39;;;;;;;34.33;17.80;;;6.10;99.90;;;;;;4852484;29;20036;-81
2022/01/19 00:18:07;;;;;;;37.63;18.95;;;6.10;99.90;;;;;;4850529;29;20038;-79
2022/01/19 00:20:34;;;;;;;40.70;20.15;;;6.10;99.90;;;;;;4851352;29;20494;-77
2022/01/19 00:23:07;;;;;;;41.45;20.60;;;6.20;99.90;;;;;;4840423;29;20054;-81
2022/01/19 00:25:38;;;;;;;50.83;21.75;;;6.10;99.90;;;;;;4840609;29;21016;-80
2022/01/19 00:28:05;;;;;;;41.55;19.65;;;6.20;99.90;;;;;;4828807;29;20689;-80
2022/01/19 00:30:31;;;;;;;42.20;20.52;;;6.20;99.90;;;;;;4825644;29;20434;-79
2022/01/19 00:32:58;;;;;;;36.70;18.08;;;6.10;99.90;;;;;;4858123;29;20053;-79
2022/01/19 00:35:24;;;;;;;39.72;17.30;;;6.20;99.90;;;;;;4845665;29;20415;-79
2022/01/19 00:37:56;;;;;;;39.80;18.92;;;6.20;99.90;;;;;;4844261;29;20049;-79
2022/01/19 00:40:26;;;;;;;37.80;18.05;;;6.10;99.90;;;;;;4845480;29;20045;-80
2022/01/19 00:42:53;;;;;;;35.38;19.08;;;6.10;99.90;;;;;;4849285;29;20037;-82
2022/01/19 00:45:19;;;;;;;39.58;18.90;;;6.20;99.90;;;;;;4829887;29;20794;-84
2022/01/19 00:47:46;;;;;;;48.22;22.92;;;6.10;99.90;;;;;;4845101;29;20048;-82
2022/01/19 00:50:17;;;;;;;39.85;21.27;;;6.10;99.90;;;;;;4842768;29;20046;-81
2022/01/19 00:52:44;;;;;;;45.90;20.88;;;6.10;99.90;;;;;;4852565;29;20045;-82
2022/01/19 00:55:13;;;;;;;46.28;20.92;;;6.10;99.90;;;;;;4829555;29;20497;-81
2022/01/19 00:57:42;;;;;;;48.00;21.07;;;6.10;99.90;;;;;;4833920;29;20045;-80
2022/01/19 01:00:12;;;;;;;34.72;18.70;;;6.10;99.90;;;;;;4836617;29;20494;-84
2022/01/19 01:02:43;;;;;;;36.65;18.30;;;6.10;99.90;;;;;;4811689;29;20034;-89
2022/01/19 01:05:19;;;;;;;39.35;19.38;;;6.00;99.90;;;;;;4820197;29;20410;-80
2022/01/19 01:07:46;;;;;;;42.22;19.20;;;6.00;99.90;;;;;;4839272;29;20046;-80
2022/01/19 01:10:16;;;;;;;42.10;19.40;;;6.00;99.90;;;;;;4838216;29;20041;-81
2022/01/19 01:20:36;;;;;;;44.00;19.73;;;5.90;99.90;;;;;;4830222;29;20041;-89
2022/01/19 01:23:25;;;;;;;38.20;18.40;;;5.80;99.90;;;;;;4840062;29;20038;-90
2022/01/19 01:25:53;;;;;;;32.92;16.55;;;5.70;99.90;;;;;;4826944;29;20068;-83
2022/01/19 01:28:20;;;;;;;34.42;17.63;;;5.50;99.90;;;;;;4845386;29;20502;-80
2022/01/19 01:30:47;;;;;;;33.78;16.38;;;5.40;99.90;;;;;;4828213;29;20038;-85
2022/01/19 01:33:14;;;;;;;30.35;15.65;;;5.30;99.90;;;;;;4837001;29;20038;-85
2022/01/19 01:35:44;;;;;;;30.33;14.77;;;5.20;99.90;;;;;;4822382;29;20037;-91
2022/01/19 01:38:10;;;;;;;31.63;15.93;;;5.10;99.90;;;;;;4836627;29;20045;-86
2022/01/19 01:40:37;;;;;;;34.72;15.70;;;5.00;99.90;;;;;;4832827;29;20045;-81
2022/01/19 01:43:07;;;;;;;43.78;16.88;;;4.90;99.90;;;;;;4842899;29;20044;-81
2022/01/19 01:45:41;;;;;;;35.83;17.30;;;4.80;99.90;;;;;;4837872;29;20034;-80
2022/01/19 01:48:15;;;;;;;37.75;17.48;;;4.70;99.90;;;;;;4837529;29;20038;-80
2022/01/19 01:53:45;;;;;;;52.60;23.15;;;4.50;99.90;;;;;;4855772;29;20038;-79
2022/01/19 01:56:16;;;;;;;49.00;21.58;;;4.50;99.90;;;;;;4828520;29;20042;-81
2022/01/19 01:58:57;;;;;;;54.97;23.75;;;4.50;99.90;;;;;;4828736;29;20061;-80
2022/01/19 02:01:30;;;;;;;65.90;26.35;;;4.50;99.90;;;;;;4856632;29;21189;-80
2022/01/19 02:07:43;;;;;;;91.35;31.83;;;4.70;99.90;;;;;;4861263;29;20049;-77
2022/01/19 02:24:28;;;;;;;154.57;24.80;;;4.80;99.90;;;;;;4842456;29;20045;-80
2022/01/19 02:42:53;;;;;;;;;;;;;;;;;;;;;
2022/01/19 02:51:30;;;;;;;58.28;24.67;;;4.50;99.90;;;;;;4853190;29;20053;-78
2022/01/19 02:54:12;;;;;;;84.00;31.85;;;4.40;99.90;;;;;;4837999;29;20045;-81
2022/01/19 02:57:13;;;;;;;77.80;28.45;;;4.40;99.90;;;;;;4848203;29;20046;-81
2022/01/19 03:06:32;;;;;;;60.65;27.38;;;4.30;99.90;;;;;;4836852;29;20044;-81
2022/01/19 03:08:43;;;;;;;68.35;28.10;;;4.10;99.90;;;;;;4849525;29;20041;-80
2022/01/19 03:10:02;;;;;;;123.22;39.70;;;4.00;99.90;;;;;;4847885;29;20041;-81
2022/01/19 03:12:43;;;;;;;72.85;30.30;;;3.90;99.90;;;;;;4833366;29;20093;-80
2022/01/19 03:15:15;;;;;;;82.45;32.28;;;3.80;99.90;;;;;;4834184;29;20045;-81
2022/01/19 03:17:45;;;;;;;75.53;29.73;;;3.80;99.90;;;;;;4850144;29;20050;-81
2022/01/19 03:20:20;;;;;;;69.55;31.48;;;3.70;99.90;;;;;;4837832;29;20042;-80
2022/01/19 03:23:10;;;;;;;77.35;31.55;;;3.70;99.90;;;;;;4831835;29;20042;-80
2022/01/19 03:25:41;;;;;;;76.57;29.63;;;3.70;99.90;;;;;;4835172;29;20506;-80
2022/01/19 03:28:11;;;;;;;68.63;30.27;;;3.70;99.90;;;;;;4820653;29;20049;-81
2022/01/19 03:30:43;;;;;;;62.40;26.88;;;3.60;99.90;;;;;;4838357;29;20418;-81
2022/01/19 03:33:20;;;;;;;65.25;27.75;;;3.50;99.90;;;;;;4825279;29;20438;-81
2022/01/19 03:36:02;;;;;;;65.95;27.90;;;3.50;99.90;;;;;;4836688;29;20034;-81
2022/01/19 03:38:34;;;;;;;70.13;28.75;;;3.50;99.90;;;;;;4839524;29;20061;-81
2022/01/19 03:41:06;;;;;;;57.85;28.02;;;3.40;99.90;;;;;;4851849;29;20045;-81
2022/01/19 03:43:45;;;;;;;64.20;28.57;;;3.40;99.90;;;;;;4850517;29;20053;-81
2022/01/19 03:46:16;;;;;;;55.90;24.50;;;3.40;99.90;;;;;;4838870;29;20040;-81
2022/01/19 03:48:55;;;;;;;55.92;26.05;;;3.40;99.90;;;;;;4847794;29;20038;-81
2022/01/19 03:51:26;;;;;;;51.15;24.13;;;3.30;99.90;;;;;;4851803;29;20366;-81
2022/01/19 03:53:55;;;;;;;48.10;24.57;;;3.30;99.90;;;;;;4835287;29;20041;-81
2022/01/19 03:56:23;;;;;;;48.30;21.13;;;3.30;99.90;;;;;;4833874;29;20953;-81
2022/01/19 03:58:50;;;;;;;48.50;21.65;;;3.20;99.90;;;;;;4848955;29;20402;-81
2022/01/19 04:01:21;;;;;;;46.40;23.00;;;3.20;99.90;;;;;;4849826;29;20033;-81
2022/01/19 04:06:58;;;;;;;39.93;19.90;;;3.10;99.90;;;;;;4831478;29;20049;-81
2022/01/19 04:09:44;;;;;;;40.33;18.90;;;3.10;99.90;;;;;;4837247;29;20537;-80
2022/01/19 04:12:41;;;;;;;37.92;19.20;;;3.10;99.90;;;;;;4847612;29;20056;-81
2022/01/19 04:15:19;;;;;;;38.37;17.37;;;3.00;99.90;;;;;;4836207;29;20042;-81
2022/01/19 04:17:53;;;;;;;41.63;19.00;;;3.00;99.90;;;;;;4847360;29;20049;-81
2022/01/19 04:20:24;;;;;;;39.10;20.83;;;2.90;99.90;;;;;;4852698;29;20108;-81
2022/01/19 04:22:53;;;;;;;43.28;21.63;;;2.90;99.90;;;;;;4847246;29;20497;-81
2022/01/19 04:25:21;;;;;;;46.30;21.80;;;2.80;99.90;;;;;;4856965;29;20401;-81
2022/01/19 04:27:51;;;;;;;50.17;23.20;;;2.80;99.90;;;;;;4851860;29;20033;-81
2022/01/19 04:30:20;;;;;;;44.03;21.10;;;2.80;99.90;;;;;;4832681;29;20038;-81
2022/01/19 04:35:27;;;;;;;41.58;20.90;;;2.80;99.90;;;;;;4850886;29;20037;-80
2022/01/19 05:03:43;;;;;;;28.27;15.60;;;2.50;99.90;;;;;;4840816;29;20057;-80
2022/01/19 05:06:24;;;;;;;32.20;16.53;;;2.50;99.90;;;;;;4845324;29;20354;-80
2022/01/19 05:09:08;;;;;;;29.57;14.83;;;2.50;99.90;;;;;;4848588;29;20045;-81
2022/01/19 05:14:28;;;;;;;32.17;16.77;;;2.40;99.90;;;;;;4846580;29;20052;-80
2022/01/19 05:16:56;;;;;;;33.63;17.93;;;2.40;99.90;;;;;;4833622;29;20037;-80
2022/01/19 05:19:23;;;;;;;28.07;15.70;;;2.40;99.90;;;;;;4850720;29;20378;-82
2022/01/19 05:21:57;;;;;;;29.60;16.40;;;2.40;99.90;;;;;;4846471;29;20368;-81
2022/01/19 05:24:46;;;;;;;31.17;16.97;;;2.50;99.90;;;;;;4847134;29;20041;-81
2022/01/19 05:27:30;;;;;;;31.07;16.73;;;2.60;99.90;;;;;;4846495;29;20612;-80
2022/01/19 05:29:59;;;;;;;22.17;13.50;;;2.70;99.90;;;;;;4851863;29;20667;-79
2022/01/19 05:32:29;;;;;;;31.77;17.13;;;2.70;99.90;;;;;;4848555;29;20041;-86
2022/01/19 05:34:57;;;;;;;33.63;17.17;;;2.80;99.90;;;;;;4833892;29;20383;-86
2022/01/19 05:37:47;;;;;;;34.17;18.17;;;2.90;99.90;;;;;;4847194;29;20042;-84
2022/01/19 05:40:33;;;;;;;38.60;19.17;;;3.00;99.90;;;;;;4837957;29;20505;-83
2022/01/19 05:43:04;;;;;;;35.00;20.20;;;3.10;99.90;;;;;;4835935;29;20461;-82
2022/01/19 05:45:36;;;;;;;36.23;20.47;;;3.20;99.90;;;;;;4828970;29;20402;-82
2022/01/19 05:48:20;;;;;;;35.57;19.70;;;3.20;99.90;;;;;;4830875;29;20034;-83
2022/01/19 05:51:11;;;;;;;32.37;17.87;;;3.30;99.90;;;;;;4846773;29;20046;-82
2022/01/19 05:53:41;;;;;;;33.83;18.40;;;3.30;99.90;;;;;;4832494;29;20165;-78
2022/01/19 05:56:16;;;;;;;38.80;22.50;;;3.30;99.90;;;;;;4847225;29;20034;-82
2022/01/19 05:58:53;;;;;;;35.37;19.67;;;3.30;99.90;;;;;;4845656;29;20370;-79
2022/01/19 06:01:20;;;;;;;39.93;21.77;;;3.40;99.90;;;;;;4832156;29;20342;-82
2022/01/19 06:03:47;;;;;;;37.20;20.80;;;3.50;99.90;;;;;;4851675;29;20052;-82
2022/01/19 06:06:39;;;;;;;31.90;19.17;;;3.50;99.90;;;;;;4845726;29;20026;-84
2022/01/19 06:09:49;;;;;;;35.23;20.53;;;3.60;99.90;;;;;;4850657;29;20046;-84
2022/01/19 06:12:17;;;;;;;44.40;23.47;;;3.60;99.90;;;;;;4820797;29;20050;-84
2022/01/19 06:14:45;;;;;;;47.73;24.53;;;3.70;99.90;;;;;;4852381;29;20033;-86
2022/01/19 06:17:14;;;;;;;41.40;23.67;;;3.70;99.90;;;;;;4853370;29;20753;-82
2022/01/19 06:20:04;;;;;;;48.00;25.75;;;3.70;99.90;;;;;;4830946;29;20045;-83
2022/01/19 06:22:33;;;;;;;44.40;24.43;;;3.70;99.90;;;;;;4849910;29;20053;-84
2022/01/19 06:25:09;;;;;;;46.25;25.27;;;3.80;99.90;;;;;;4824402;29;20498;-84
2022/01/19 06:27:51;;;;;;;49.17;27.27;;;3.80;99.90;;;;;;4819012;29;20050;-84
2022/01/19 06:30:33;;;;;;;54.03;28.40;;;3.80;99.90;;;;;;4832759;29;20524;-84
2022/01/19 06:33:10;;;;;;;52.72;27.10;;;3.80;99.90;;;;;;4849606;29;20405;-84
2022/01/19 06:35:48;;;;;;;61.08;30.65;;;3.80;99.90;;;;;;4852410;29;20513;-84
2022/01/19 06:38:28;;;;;;;64.13;34.13;;;3.80;99.90;;;;;;4830507;29;20037;-84
2022/01/19 06:41:21;;;;;;;63.42;31.15;;;3.80;99.90;;;;;;4847801;29;20041;-84
2022/01/19 06:43:51;;;;;;;74.68;35.83;;;3.80;99.90;;;;;;4821605;29;20050;-84
2022/01/19 06:46:18;;;;;;;81.87;37.27;;;3.80;99.90;;;;;;4824908;29;20049;-86
2022/01/19 06:48:46;;;;;;;77.57;35.40;;;3.80;99.90;;;;;;4837326;29;20065;-86
2022/01/19 06:51:17;;;;;;;63.53;31.47;;;3.80;99.90;;;;;;4833858;29;20034;-86
2022/01/19 06:53:52;;;;;;;70.50;31.93;;;3.80;99.90;;;;;;4850527;29;20025;-86
2022/01/19 06:56:25;;;;;;;89.22;39.67;;;3.80;99.90;;;;;;4828286;29;20061;-86
2022/01/19 06:59:34;;;;;;;90.10;38.53;;;3.80;99.90;;;;;;4844185;29;20040;-85
2022/01/19 07:02:13;;;;;;;84.88;39.92;;;3.80;99.90;;;;;;4844657;29;20473;-86
2022/01/19 07:05:06;;;;;;;83.93;38.20;;;3.80;99.90;;;;;;4828916;29;20053;-87
2022/01/19 07:08:18;;;;;;;85.15;37.88;;;3.80;99.90;;;;;;4843558;29;20057;-86
2022/01/19 07:11:03;;;;;;;72.10;36.47;;;3.70;99.90;;;;;;4810658;29;20045;-87
2022/01/19 07:13:36;;;;;;;73.03;33.83;;;3.70;99.90;;;;;;4850175;29;20049;-86
2022/01/19 07:16:16;;;;;;;71.72;33.03;;;3.70;99.90;;;;;;4823246;29;20065;-85
2022/01/19 07:18:57;;;;;;;69.03;35.30;;;3.70;99.90;;;;;;4839049;29;20060;-85
2022/01/19 07:21:50;;;;;;;68.33;32.93;;;3.70;99.90;;;;;;4833246;29;20046;-85
2022/01/19 07:27:31;;;;;;;80.35;37.90;;;3.70;99.90;;;;;;4821040;29;20058;-85
2022/01/19 07:30:08;;;;;;;79.50;37.13;;;3.70;99.90;;;;;;4806045;29;20061;-85
2022/01/19 07:36:17;;;;;;;72.70;35.33;;;3.70;99.90;;;;;;4817438;29;20043;-85
2022/01/19 07:43:12;;;;;;;85.50;37.83;;;3.70;99.90;;;;;;4765439;30;20439;-85
2022/01/19 07:46:34;;;;;;;70.78;32.92;;;3.70;99.90;;;;;;4765967;30;20054;-87
2022/01/19 07:49:57;;;;;;;76.93;36.40;;;3.70;99.90;;;;;;4735973;30;20056;-85
2022/01/19 07:53:02;;;;;;;64.80;31.60;;;3.70;99.90;;;;;;4753794;30;20060;-86
2022/01/19 07:56:03;;;;;;;68.80;32.57;;;3.70;99.90;;;;;;4759824;30;20049;-86
2022/01/19 07:59:49;;;;;;;69.63;33.85;;;3.70;99.90;;;;;;4806855;29;20051;-86
2022/01/19 08:02:33;;;;;;;72.78;35.13;;;3.70;99.90;;;;;;4786961;29;20058;-86
2022/01/19 08:06:04;;;;;;;71.13;34.00;;;3.70;99.90;;;;;;4829976;29;20053;-87
2022/01/19 08:09:25;;;;;;;63.53;30.73;;;3.70;99.90;;;;;;4868599;29;20125;-87
2022/01/19 08:12:02;;;;;;;65.73;31.47;;;3.70;99.90;;;;;;4863303;29;20052;-86
2022/01/19 08:14:50;;;;;;;67.27;32.10;;;3.70;99.90;;;;;;4877653;29;20053;-86
2022/01/19 08:18:04;;;;;;;67.82;34.03;;;3.70;99.90;;;;;;4845556;29;20041;-87
2022/01/19 08:21:03;;;;;;;69.93;31.70;;;3.80;99.90;;;;;;4838699;29;20375;-86
2022/01/19 08:23:53;;;;;;;68.90;34.03;;;3.80;99.90;;;;;;4855719;29;20415;-85
2022/01/19 08:26:29;;;;;;;64.63;32.78;;;3.80;99.90;;;;;;4833373;29;20482;-86
2022/01/19 08:29:09;;;;;;;73.45;35.15;;;3.80;99.90;;;;;;4828328;29;20494;-84
2022/01/19 08:31:59;;;;;;;65.00;32.60;;;3.80;99.90;;;;;;4838669;29;20038;-82
2022/01/19 08:35:09;;;;;;;65.95;33.38;;;3.80;99.90;;;;;;4830742;29;20053;-82
2022/01/19 08:38:24;;;;;;;66.07;33.17;;;3.80;99.90;;;;;;4855968;29;20375;-81
2022/01/19 08:41:10;;;;;;;60.97;32.10;;;3.80;99.90;;;;;;4849072;29;20053;-82
2022/01/19 08:44:27;;;;;;;64.68;33.97;;;3.80;99.90;;;;;;4843163;29;20044;-82
2022/01/19 08:47:16;;;;;;;68.07;35.10;;;3.90;99.90;;;;;;4808873;29;20050;-82
2022/01/19 08:50:15;;;;;;;68.75;34.67;;;3.90;99.90;;;;;;4819760;29;20505;-82
2022/01/19 08:53:26;;;;;;;57.85;30.60;;;3.90;99.90;;;;;;4824636;29;20483;-83
2022/01/19 08:56:15;;;;;;;63.90;32.30;;;3.90;99.90;;;;;;4797871;29;20488;-83
2022/01/19 08:58:42;;;;;;;56.77;29.97;;;3.90;99.90;;;;;;4783184;29;20062;-83
2022/01/19 09:01:12;;;;;;;67.25;33.15;;;3.90;99.90;;;;;;4822911;29;20068;-83
2022/01/19 09:03:46;;;;;;;57.33;31.20;;;3.90;99.90;;;;;;4814927;29;20481;-84
2022/01/19 09:06:20;;;;;;;52.53;29.40;;;3.90;99.90;;;;;;4826671;29;20049;-83
2022/01/19 09:08:52;;;;;;;47.60;27.50;;;3.90;99.90;;;;;;4823814;29;20244;-84
2022/01/19 09:11:29;;;;;;;51.90;28.25;;;3.90;99.90;;;;;;4826083;29;20030;-83
2022/01/19 09:14:15;;;;;;;54.57;30.47;;;4.00;99.90;;;;;;4843261;29;20052;-83
2022/01/19 09:17:16;;;;;;;56.72;32.03;;;4.00;99.90;;;;;;4821954;29;20053;-84
2022/01/19 09:19:50;;;;;;;54.17;30.70;;;4.00;99.90;;;;;;4826751;29;20050;-82
2022/01/19 09:22:32;;;;;;;53.42;29.58;;;4.00;99.90;;;;;;4839757;29;20046;-83
2022/01/19 09:25:03;;;;;;;53.60;30.20;;;4.10;99.90;;;;;;4814547;29;20045;-83
2022/01/19 09:27:48;;;;;;;59.38;33.65;;;4.10;99.90;;;;;;4838705;29;20060;-82
2022/01/19 09:30:26;;;;;;;57.22;31.83;;;4.10;99.90;;;;;;4838078;29;20042;-84
2022/01/19 09:33:11;;;;;;;51.88;29.88;;;4.10;99.90;;;;;;4838893;29;20050;-84
2022/01/19 09:38:30;;;;;;;51.27;30.40;;;4.10;99.90;;;;;;4821509;29;20057;-82
2022/01/19 09:40:59;;;;;;;59.92;33.88;;;4.20;99.90;;;;;;4839198;29;20046;-83
2022/01/19 09:43:26;;;;;;;62.40;34.05;;;4.20;99.90;;;;;;4839598;29;20033;-82
2022/01/19 09:45:58;;;;;;;54.03;32.05;;;4.20;99.90;;;;;;4839972;29;20050;-83
2022/01/19 09:48:32;;;;;;;57.65;32.55;;;4.20;99.90;;;;;;4838298;29;20046;-84
2022/01/19 09:51:21;;;;;;;48.97;28.33;;;4.20;99.90;;;;;;4835157;29;20042;-83
2022/01/19 09:54:02;;;;;;;54.40;32.53;;;4.20;99.90;;;;;;4838511;29;20030;-84
2022/01/19 09:56:33;;;;;;;61.67;33.60;;;4.30;99.90;;;;;;4838751;29;20030;-84
2022/01/19 09:59:03;;;;;;;51.08;30.30;;;4.30;99.90;;;;;;4837335;29;20038;-83
2022/01/19 10:01:30;;;;;;;52.15;31.60;;;4.30;99.90;;;;;;4836994;29;20042;-83
2022/01/19 10:04:24;;;;;;;50.83;30.63;;;4.30;99.90;;;;;;4837671;29;20030;-82
2022/01/19 10:07:12;;;;;;;42.90;25.80;;;4.40;99.90;;;;;;4837640;29;20065;-82
2022/01/19 10:09:57;;;;;;;53.37;28.93;;;4.40;99.90;;;;;;4842013;29;20038;-82
2022/01/19 10:18:19;;;;;;;51.38;31.23;;;4.40;99.90;;;;;;4827528;29;20041;-82
2022/01/19 10:21:05;;;;;;;48.30;27.88;;;4.40;99.90;;;;;;4836577;29;20468;-84
2022/01/19 10:23:38;;;;;;;46.90;28.38;;;4.50;99.90;;;;;;4850102;29;20037;-82
2022/01/19 10:26:08;;;;;;;54.50;32.17;;;4.50;99.90;;;;;;4846477;29;20060;-82
2022/01/19 10:29:03;;;;;;;48.38;30.60;;;4.50;99.90;;;;;;4846359;29;20080;-81
2022/01/19 10:31:32;;;;;;;46.00;27.65;;;4.50;99.90;;;;;;4845017;29;20477;-81
2022/01/19 10:34:22;;;;;;;50.22;30.63;;;4.50;99.90;;;;;;4848085;29;20398;-81
2022/01/19 10:36:56;;;;;;;47.65;30.10;;;4.60;99.90;;;;;;4847008;29;20057;-81
2022/01/19 10:39:37;;;;;;;52.58;31.70;;;4.60;99.90;;;;;;4834391;29;20438;-82
2022/01/19 10:42:16;;;;;;;47.13;29.23;;;4.60;99.90;;;;;;4846488;29;20037;-82
2022/01/19 10:44:56;;;;;;;46.63;29.52;;;4.70;99.90;;;;;;4819773;29;20042;-82
2022/01/19 10:47:46;;;;;;;46.05;29.70;;;4.70;99.90;;;;;;4847018;29;20049;-82
2022/01/19 10:50:31;;;;;;;46.60;29.08;;;4.70;99.90;;;;;;4852040;29;20046;-82
2022/01/19 10:53:02;;;;;;;48.83;29.23;;;4.70;99.90;;;;;;4832480;29;20045;-82
2022/01/19 10:55:42;;;;;;;44.15;26.42;;;4.70;99.90;;;;;;4837444;29;20045;-82
2022/01/19 10:58:15;;;;;;;41.63;26.75;;;4.70;99.90;;;;;;4837008;29;20045;-82
2022/01/19 11:00:49;;;;;;;46.90;28.17;;;4.70;99.90;;;;;;4822007;29;20045;-82
2022/01/19 11:03:23;;;;;;;45.53;27.75;;;4.70;99.90;;;;;;4832275;29;20049;-82
2022/01/19 11:05:55;;;;;;;47.47;28.23;;;4.70;99.90;;;;;;4852733;29;20703;-82
2022/01/19 11:08:26;;;;;;;46.73;27.47;;;4.80;99.90;;;;;;4853337;29;20034;-82
2022/01/19 11:10:55;;;;;;;46.05;28.92;;;4.70;99.90;;;;;;4850342;29;20034;-82
2022/01/19 11:13:30;;;;;;;45.10;27.52;;;4.80;99.90;;;;;;4834047;29;20038;-82
2022/01/19 11:16:01;;;;;;;43.58;24.60;;;4.80;99.90;;;;;;4844638;29;20045;-82
2022/01/19 11:18:32;;;;;;;42.92;26.60;;;4.80;99.90;;;;;;4845904;29;20037;-82
2022/01/19 11:21:04;;;;;;;39.95;25.65;;;4.80;99.90;;;;;;4847887;29;20490;-80
2022/01/19 11:24:01;;;;;;;55.90;31.90;;;4.80;99.90;;;;;;4841480;29;20114;-80
2022/01/19 11:26:38;;;;;;;53.45;30.98;;;4.80;99.90;;;;;;4823886;29;20513;-84
2022/01/19 11:29:21;;;;;;;51.92;29.40;;;4.90;99.90;;;;;;4814657;29;20054;-81
2022/01/19 11:31:51;;;;;;;52.35;31.10;;;4.90;99.90;;;;;;4851241;29;20046;-81
2022/01/19 11:34:37;;;;;;;48.33;27.55;;;4.80;99.90;;;;;;4836218;29;20056;-82
2022/01/19 11:37:05;;;;;;;46.80;28.70;;;4.90;99.90;;;;;;4843300;29;20069;-83
2022/01/19 11:39:35;;;;;;;47.72;29.13;;;4.90;99.90;;;;;;4847804;29;20041;-82
2022/01/19 11:42:05;;;;;;;52.40;31.17;;;4.90;99.90;;;;;;4845501;29;20062;-81
2022/01/19 11:44:35;;;;;;;48.80;31.23;;;5.00;99.90;;;;;;4827487;29;20041;-81
2022/01/19 11:47:13;;;;;;;52.03;30.90;;;5.00;99.90;;;;;;4845724;29;20049;-81
2022/01/19 11:49:45;;;;;;;46.08;31.27;;;5.00;99.90;;;;;;4829585;29;20159;-82
2022/01/19 11:52:15;;;;;;;45.58;27.02;;;5.00;99.90;;;;;;4847116;29;20042;-81
2022/01/19 11:54:45;;;;;;;50.38;30.00;;;5.00;99.90;;;;;;4846680;29;20391;-81
2022/01/19 11:57:15;;;;;;;48.83;31.10;;;5.10;99.90;;;;;;4850832;29;20116;-82
2022/01/19 11:59:47;;;;;;;56.08;31.50;;;5.10;99.90;;;;;;4844119;29;20037;-81
2022/01/19 12:02:33;;;;;;;45.00;28.27;;;5.10;99.90;;;;;;4852436;29;20045;-81
2022/01/19 12:05:27;;;;;;;51.33;32.53;;;5.10;99.90;;;;;;4835234;29;20045;-82
2022/01/19 12:08:39;;;;;;;50.35;30.38;;;5.10;99.90;;;;;;4842874;29;20113;-82
2022/01/19 12:11:28;;;;;;;50.28;30.73;;;5.10;99.90;;;;;;4834714;29;20058;-81
2022/01/19 12:14:38;;;;;;;51.03;29.58;;;5.10;99.90;;;;;;4828484;29;20049;-82
2022/01/19 12:17:27;;;;;;;44.70;28.17;;;5.10;99.90;;;;;;4839535;29;20058;-83
2022/01/19 12:20:01;;;;;;;53.33;31.42;;;5.10;99.90;;;;;;4839907;29;20042;-83
2022/01/19 12:22:39;;;;;;;50.85;31.23;;;5.10;99.90;;;;;;4838431;29;20411;-82
2022/01/19 12:25:18;;;;;;;48.05;30.20;;;5.10;99.90;;;;;;4827887;29;20072;-82
2022/01/19 12:28:00;;;;;;;48.33;30.90;;;5.20;99.90;;;;;;4824569;29;20069;-82
2022/01/19 12:30:29;;;;;;;52.95;33.35;;;5.20;99.90;;;;;;4843403;29;20029;-81
2022/01/19 12:33:04;;;;;;;48.78;30.42;;;5.30;99.90;;;;;;4848939;29;20387;-81
2022/01/19 12:35:38;;;;;;;58.00;32.47;;;5.40;99.90;;;;;;4824733;29;20042;-80
2022/01/19 12:38:24;;;;;;;50.20;31.52;;;5.40;99.90;;;;;;4843404;29;20060;-80
2022/01/19 12:41:01;;;;;;;55.50;34.67;;;5.50;99.90;;;;;;4849114;29;20401;-81
2022/01/19 12:43:37;;;;;;;49.72;31.88;;;5.60;99.90;;;;;;4832152;29;20060;-82
2022/01/19 12:46:33;;;;;;;52.38;33.80;;;5.60;99.90;;;;;;4839689;29;20034;-81
2022/01/19 12:50:05;;;;;;;51.22;32.20;;;5.70;99.90;;;;;;4867090;29;20046;-81
2022/01/19 12:52:48;;;;;;;54.53;34.70;;;5.70;99.90;;;;;;4846171;29;20033;-81
2022/01/19 12:56:11;;;;;;;51.00;34.42;;;5.70;99.90;;;;;;4844278;29;20034;-81
2022/01/19 12:58:47;;;;;;;46.53;29.33;;;5.70;99.90;;;;;;4842558;29;20049;-81
2022/01/19 13:01:22;;;;;;;50.22;32.55;;;5.70;99.90;;;;;;4849244;29;20496;-82
2022/01/19 13:03:53;;;;;;;48.78;30.77;;;5.70;99.90;;;;;;4823619;29;20037;-82
2022/01/19 13:06:25;;;;;;;53.42;32.78;;;5.70;99.90;;;;;;4822257;29;20050;-82
2022/01/19 13:09:13;;;;;;;48.97;31.65;;;5.70;99.90;;;;;;4841011;29;20323;-82
2022/01/19 13:12:05;;;;;;;50.25;31.83;;;5.70;99.90;;;;;;4848991;29;20417;-82
2022/01/19 13:14:38;;;;;;;48.25;30.23;;;5.60;99.90;;;;;;4846702;29;20034;-81
2022/01/19 13:17:40;;;;;;;46.03;30.15;;;5.70;99.90;;;;;;4842251;29;20041;-81
2022/01/19 13:20:29;;;;;;;45.30;29.55;;;5.70;99.90;;;;;;4829249;29;20056;-81
2022/01/19 13:23:06;;;;;;;43.22;29.48;;;5.60;99.90;;;;;;4827814;29;20046;-81
2022/01/19 13:25:40;;;;;;;50.65;32.85;;;5.60;99.90;;;;;;4841009;29;20034;-82
2022/01/19 13:28:23;;;;;;;48.22;31.88;;;5.60;99.90;;;;;;4844587;29;20042;-81
2022/01/19 13:30:50;;;;;;;45.58;30.48;;;5.60;99.90;;;;;;4828282;29;20049;-81
2022/01/19 13:33:19;;;;;;;52.30;31.65;;;5.60;99.90;;;;;;4844741;29;20038;-82
2022/01/19 13:36:05;;;;;;;54.53;34.23;;;5.60;99.90;;;;;;4846610;29;20430;-81
2022/01/19 13:38:31;;;;;;;56.22;35.30;;;5.70;99.90;;;;;;4825831;29;20068;-81
2022/01/19 13:41:13;;;;;;;51.42;31.52;;;5.60;99.90;;;;;;4819793;29;20050;-80
2022/01/19 13:44:32;;;;;;;48.60;31.88;;;5.60;99.90;;;;;;4839685;29;20048;-81
2022/01/19 13:47:11;;;;;;;55.22;34.90;;;5.60;99.90;;;;;;4833173;29;20045;-81
2022/01/19 13:49:40;;;;;;;48.10;31.65;;;5.60;99.90;;;;;;4827178;29;20375;-81
2022/01/19 13:52:24;;;;;;;55.95;33.78;;;5.60;99.90;;;;;;4830918;29;20399;-80
2022/01/19 13:54:59;;;;;;;45.42;32.00;;;5.60;99.90;;;;;;4859806;29;20053;-81
2022/01/19 13:57:38;;;;;;;48.42;31.95;;;5.60;99.90;;;;;;4845135;29;20046;-81
2022/01/19 14:00:25;;;;;;;48.15;30.17;;;5.60;99.90;;;;;;4844306;29;20056;-81
2022/01/19 14:02:57;;;;;;;58.50;37.45;;;5.60;99.90;;;;;;4845086;29;20034;-81
2022/01/19 14:05:40;;;;;;;53.72;34.10;;;5.60;99.90;;;;;;4847041;29;20049;-81
2022/01/19 14:08:14;;;;;;;54.87;33.57;;;5.50;99.90;;;;;;4833033;29;20049;-81
2022/01/19 14:10:55;;;;;;;51.30;32.25;;;5.50;99.90;;;;;;4844331;29;20053;-81
2022/01/19 14:13:37;;;;;;;50.17;31.92;;;5.50;99.90;;;;;;4829693;29;20115;-81
2022/01/19 14:16:28;;;;;;;52.27;33.03;;;5.60;99.90;;;;;;4845720;29;20464;-81
2022/01/19 14:19:47;;;;;;;50.30;33.13;;;5.60;99.90;;;;;;4828466;29;20057;-81
2022/01/19 14:22:36;;;;;;;61.25;37.80;;;5.60;99.90;;;;;;4844581;29;20049;-81
2022/01/19 14:25:27;;;;;;;56.03;35.20;;;5.60;99.90;;;;;;4832750;29;20041;-82
2022/01/19 14:28:03;;;;;;;56.67;37.00;;;5.60;99.90;;;;;;4826056;29;20049;-82
2022/01/19 14:30:42;;;;;;;51.45;32.67;;;5.60;99.90;;;;;;4844203;29;20064;-82
2022/01/19 14:33:29;;;;;;;52.22;31.42;;;5.60;99.90;;;;;;4841863;29;20049;-82
2022/01/19 14:36:01;;;;;;;55.72;33.95;;;5.60;99.90;;;;;;4843303;29;20050;-83
2022/01/19 14:38:37;;;;;;;57.38;37.83;;;5.60;99.90;;;;;;4843513;29;20053;-83
2022/01/19 14:41:43;;;;;;;52.25;33.63;;;5.60;99.90;;;;;;4839252;29;20037;-83
2022/01/19 14:44:29;;;;;;;55.47;35.33;;;5.60;99.90;;;;;;4841457;29;20052;-83
2022/01/19 14:47:13;;;;;;;53.17;34.67;;;5.60;99.90;;;;;;4840398;29;20057;-83
2022/01/19 14:49:56;;;;;;;54.50;33.38;;;5.60;99.90;;;;;;4843144;29;20514;-83
2022/01/19 14:52:23;;;;;;;55.92;35.42;;;5.60;99.90;;;;;;4842242;29;20065;-84
2022/01/19 14:54:55;;;;;;;52.97;32.85;;;5.60;99.90;;;;;;4847061;29;20037;-83
2022/01/19 14:57:27;;;;;;;51.63;33.90;;;5.60;99.90;;;;;;4841886;29;20033;-83
2022/01/19 14:59:54;;;;;;;54.22;35.53;;;5.60;99.90;;;;;;4842477;29;20049;-85
2022/01/19 15:02:21;;;;;;;53.10;33.45;;;5.60;99.90;;;;;;4842441;29;20042;-85
2022/01/19 15:04:52;;;;;;;49.13;31.27;;;5.60;99.90;;;;;;4810242;29;20049;-85
2022/01/19 15:07:23;;;;;;;52.35;35.03;;;5.60;99.90;;;;;;4840483;29;20045;-85
2022/01/19 15:09:53;;;;;;;50.20;33.47;;;5.60;99.90;;;;;;4824949;29;20537;-85
2022/01/19 15:12:20;;;;;;;55.47;34.97;;;5.60;99.90;;;;;;4856354;29;20627;-84
2022/01/19 15:14:50;;;;;;;68.32;39.00;;;5.50;99.90;;;;;;4828614;29;20033;-84
2022/01/19 15:17:20;;;;;;;58.42;35.30;;;5.50;99.90;;;;;;4843909;29;20482;-83
2022/01/19 15:19:46;;;;;;;62.17;36.92;;;5.50;99.90;;;;;;4824267;29;20049;-81
2022/01/19 15:22:12;;;;;;;68.28;38.47;;;5.40;99.90;;;;;;4842995;29;20485;-80
2022/01/19 15:24:40;;;;;;;59.40;35.40;;;5.40;99.90;;;;;;4825194;29;20050;-80
2022/01/19 15:27:06;;;;;;;55.78;33.50;;;5.30;99.90;;;;;;4842709;29;20053;-79